Weather observations for the past three days for
Chamberlain, Chamberlain Municipal Airport
Metric (Imperial)
Date Time (cdt) Wind (kph) Vis. (km) Weather Sky Cond. Temperature (ºC) Relative Humidity Wind Chill (°C) Heat Index (°C) Pressure Precipitation (cm)
Air Dwpt 6 hour altimeter (cm) sea level (mb) 1 hr 3 hr 6 hr
Max. Min.
08 04:35 Calm 16.09 Fair CLR 3.4 -0.9 74% 75.74 0.0
08 04:15 SW 6 16.09 Fair CLR 3.8 -0.7 73% 75.74 0.0
08 03:55 Calm 16.09 Fair CLR 6.7 -0.8 59% 75.74 0.0
08 03:35 Calm 16.09 Fair CLR 6.5 -1.3 58% 75.74 0.0
08 03:15 Calm 16.09 Fair CLR 6.9 -1.8 54% 75.74 0.0
08 02:55 SW 6 16.09 Fair CLR 7.5 -3.5 46% 75.77 0.0
08 02:35 Calm 16.09 Fair CLR 6.5 -4.3 46% 75.77 0.0
08 02:15 Calm 16.09 Fair CLR 7.3 -3.9 45% 75.77 0.0
08 01:55 Calm 16.09 Fair CLR 6.5 -2.9 51% 75.77 0.0
08 01:35 S 6 16.09 Mostly Cloudy BKN100 6 -2.1 56% 75.79 0.0
08 01:15 Calm 16.09 Mostly Cloudy BKN100 8.1 -3.6 44% 75.79 0.0
08 00:55 Calm 16.09 Partly Cloudy SCT100 7.6 -2.7 18.4 6 48% 75.79 0.0
08 00:35 Calm 16.09 Fair CLR 7.5 -2.5 49% 75.82 0.0
08 00:15 S 7 16.09 Fair CLR 8.7 -3.9 41% 8 75.82 0.0
07 23:55 SE 6 16.09 Fair CLR 9.5 -4.1 38% 75.82 0.0
07 23:35 Calm 16.09 Fair CLR 7.1 -2.2 52% 75.82 0.0
07 23:15 SE 6 16.09 Fair CLR 10.1 -3.3 39% 75.84 0.0
07 22:55 NE 6 16.09 Fair CLR 12.8 -5.4 28% 75.82 0.0
07 22:35 Calm 16.09 Fair CLR 9 -0.3 52% 75.84 0.0
07 22:15 Calm 16.09 Fair CLR 10.1 -1.4 45% 75.82 0.0
07 21:55 Calm 16.09 Fair CLR 11.3 -3.2 36% 75.82 0.0
07 21:35 Calm 16.09 Fair CLR 13.6 -3.9 30% 75.82 0.0
07 21:15 Calm 16.09 Fair CLR 13.7 -4.6 28% 75.79 0.0
07 20:55 Calm 16.09 Fair CLR 13.7 -4.4 28% 75.77 0.0
07 20:15 NE 6 16.09 Fair CLR 15.7 -5.4 23% 75.74 0.0
07 19:55 NE 7 16.09 Fair CLR 16.1 -5.9 22% 75.74 0.0
07 19:35 N 13 16.09 Fair CLR 16.8 -6.1 20% 75.74 0.0
07 19:15 N 13 16.09 Fair CLR 17.7 -5.4 20% 75.74 0.0
07 18:55 N 13 16.09 Fair CLR 18.4 -4.8 19.1 15.6 20% 75.74 0.0
07 18:35 NE 9 16.09 Fair CLR 18.6 -4.7 20% 75.74 0.0
07 18:15 N 11 16.09 Fair CLR 18.9 -5.1 19% 75.74 0.0
07 17:55 W 9 16.09 Fair CLR 18.7 -4.6 20% 75.74 0.0
07 17:35 N 9 16.09 Fair CLR 19.1 -4 21% 75.74 0.0
07 17:15 N 9 16.09 Fair CLR 18.9 -3.7 21% 75.77 0.0
07 16:55 W 9 16.09 Fair CLR 18.8 -3.3 22% 75.77 0.0
07 16:35 W 11 16.09 Fair CLR 18 -4.4 22% 75.79 0.0
07 16:15 W 15 16.09 Fair CLR 18.3 -4.2 21% 75.82 0.0
07 15:55 NW 7 16.09 Fair CLR 18 -4.5 21% 75.82 0.0
07 15:35 NW 13 16.09 Fair CLR 17.4 -5.7 20% 75.84 0.0
07 15:15 W 9 16.09 Fair CLR 18 -4.8 21% 75.84 0.0
07 14:55 N 7 16.09 Fair CLR 17.4 -5 21% 75.84 0.0
07 14:35 N 6 16.09 Fair CLR 17.1 -5.3 21% 75.84 0.0
07 14:15 N 15 16.09 Fair CLR 16.9 -4.8 22% 75.87 0.0
07 13:55 N 11 16.09 Fair CLR 16.5 -4.3 24% 75.87 0.0
07 13:35 W 7 16.09 Fair CLR 16.5 -4 24% 75.9 0.0
07 13:15 N 9 16.09 Fair CLR 16.2 -4.1 25% 75.9 0.0
07 12:55 N 11 16.09 Fair CLR 16.2 -4.9 16.3 0.2 23% 75.92 0.0
07 12:35 NW 6 16.09 Fair CLR 15.2 -6.2 22% 75.92 0.0
07 12:15 Calm 16.09 Fair CLR 15.1 -4.9 25% 75.92 0.0
07 11:55 NW 7 16.09 Fair CLR 14.6 -4.1 27% 75.95 0.0
07 11:35 Calm 16.09 Fair CLR 14.2 -1.8 33% 75.95 0.0
07 11:15 Calm 16.09 Fair CLR 13.5 -2.5 33% 75.95 0.0
07 10:55 Calm 16.09 Fair CLR 12.8 -2.3 35% 75.95 0.0
07 10:35 N 9 16.09 Fair CLR 12.2 -1.6 39% 75.95 0.0
07 10:15 Calm 16.09 Fair CLR 11.3 -2.3 39% 75.95 0.0
07 09:55 Calm 16.09 Fair CLR 10.5 -2 42% 75.92 0.0
07 09:35 Calm 16.09 Fair CLR 9.6 -1.5 46% 75.92 0.0
07 09:15 Calm 16.09 Fair CLR 8.4 -2.3 47% 75.92 0.0
07 08:55 E 6 16.09 Fair CLR 7.1 -2.3 52% 75.92 0.0
07 08:35 Calm 16.09 Fair CLR 6.3 -2.5 54% 75.92 0.0
07 08:15 NE 7 16.09 Fair CLR 5.3 -3 55% 4 75.92 0.0
07 07:55 E 9 16.09 Fair CLR 4.7 -3.2 57% 3 75.87 0.0
07 07:35 N 7 16.09 Fair CLR 3.6 -3.6 60% 2 75.87 0.0
07 07:15 Calm 16.09 Fair CLR 0.7 -3.3 75% 75.84 0.0
07 06:55 Calm 16.09 Fair CLR 1.8 -4.5 4.8 -1.2 63% 75.82 0.0
07 06:35 E 7 16.09 Fair CLR 0.6 -3.6 74% -1 75.82 0.0
07 06:15 Calm 16.09 Partly Cloudy SCT100 0.6 -3.8 73% 75.82 0.0
07 05:55 NE 6 16.09 Partly Cloudy SCT100 1.7 -4.1 66% 75.79 0.0
07 05:35 NE 9 16.09 Partly Cloudy SCT110 2.7 -3.7 63% 0 75.82 0.0
07 05:15 Calm 16.09 Partly Cloudy SCT110 1.6 -3.8 68% 75.79 0.0
07 04:55 Calm 16.09 Partly Cloudy SCT110 1.1 -3.1 74% 75.79 0.0
07 04:35 E 6 16.09 Overcast OVC120 3.8 -3.6 59% 75.82 0.0
07 04:15 E 7 16.09 Overcast OVC120 3.5 -3.6 60% 2 75.82 0.0
07 03:55 E 9 16.09 Mostly Cloudy BKN120 3.6 -3.7 59% 1 75.84 0.0
07 03:35 E 9 16.09 Partly Cloudy SCT110 3.9 -3.7 58% 2 75.84 0.0
07 03:15 E 9 16.09 Mostly Cloudy BKN110 3.5 -3.5 61% 1 75.87 0.0
07 02:55 NE 6 16.09 Mostly Cloudy BKN110 3.5 -3.5 61% 75.87 0.0
07 02:30 Calm 16.09 Overcast OVC110 2.5 -3 67% 75.9 0.0
07 02:15 Calm 16.09 Overcast OVC110 3.5 -3.2 62% 75.9 0.0
07 01:55 Calm 16.09 Overcast OVC120 3.5 -3 63% 75.92 0.0
07 01:35 E 7 16.09 Mostly Cloudy BKN120 4.8 -1.5 64% 3 75.92 0.0
07 01:15 Calm 16.09 Mostly Cloudy BKN120 3.8 -2.5 64% 75.92 0.0
07 00:55 SE 6 16.09 Mostly Cloudy BKN120 3.4 -2.4 13.1 0.9 66% 75.95 0.0
07 00:35 SE 6 16.09 Mostly Cloudy BKN120 3 -2.4 68% 75.97 0.0
07 00:15 SE 6 16.09 Partly Cloudy SCT120 2.4 -1.7 75% 75.97 0.0
06 23:55 SE 7 16.09 Mostly Cloudy BKN110 2.6 -0.8 79% 1 76 0.0
06 23:35 E 6 16.09 Mostly Cloudy BKN110 4.6 -0.1 72% 76 0.0
06 23:15 E 6 16.09 Fair CLR 4.8 -2 62% 76.02 0.0
06 22:55 Calm 16.09 Fair CLR 5 -3.4 55% 76.02 0.0
06 22:35 Calm 16.09 Fair CLR 3.6 -4.6 55% 76.05 0.0
06 22:15 Calm 16.09 Fair CLR 5.2 -4 52% 76.05 0.0
06 21:55 Calm 16.09 Fair CLR 4.9 -4.4 51% 76.07 0.0
06 21:35 E 6 16.09 Fair CLR 3.8 -4 57% 76.05 0.0
06 21:15 NE 6 16.09 Partly Cloudy SCT090 8 -4.6 41% 76.05 0.0
06 20:35 W 6 16.09 Overcast OVC100 11 -5.5 31% 76.07 0.0
06 20:15 W 7 16.09 Mostly Cloudy BKN100 12.2 -6 28% 76.07 0.0
06 19:55 W 11 16.09 Mostly Cloudy BKN100 12 -5.5 29% 76.1 0.0
06 19:35 NW 9 16.09 Mostly Cloudy BKN100 12.7 -6.8 25% 76.1 0.0
06 19:15 NW 15 16.09 Mostly Cloudy BKN100 13.1 -7 24% 76.1 0.0
06 18:55 W 17 16.09 Overcast OVC090 13.1 -7.3 14.6 11.2 24% 76.12 0.0
06 18:35 W 20 16.09 Overcast OVC090 14.4 -7.5 21% 76.12 0.0
06 18:15 NW 9 16.09 Mostly Cloudy BKN090 14 -6.5 24% 76.15 0.0
06 17:55 NW 26 G 31 16.09 Mostly Cloudy BKN090 13.6 -7 23% 76.17 0.0
06 17:35 NW 15 16.09 Partly Cloudy SCT090 12.9 -7.2 24% 76.17 0.0
06 17:15 NW 22 G 35 16.09 Partly Cloudy SCT085 13.8 -6.7 24% 76.17 0.0
06 16:55 W 11 16.09 Mostly Cloudy BKN085 12.9 -7.2 24% 76.2 0.0
06 16:35 W 22 G 28 16.09 Mostly Cloudy BKN085 13.5 -6.2 25% 76.23 0.0
06 16:15 NW 24 G 35 16.09 Fair CLR 14.5 -5.8 24% 76.23 0.0
06 15:55 NW 19 G 28 16.09 Partly Cloudy SCT080 12.3 -6.9 26% 76.28 0.0
06 15:35 NW 24 G 44 16.09 Overcast OVC080 13.4 -6.2 25% 76.28 0.0
06 15:15 W 22 G 33 16.09 Mostly Cloudy BKN080 14.2 -5.5 25% 76.3 0.0
06 14:55 W 20 G 28 16.09 Mostly Cloudy BKN080 12.7 -6.4 26% 76.33 0.0
06 14:35 W 24 G 35 16.09 Mostly Cloudy BKN080 12.4 -6.4 27% 76.33 0.0
06 14:15 NW 28 G 43 16.09 Mostly Cloudy SCT070 BKN090 12 -5.7 29% 76.35 0.0
06 13:55 NW 19 G 37 16.09 Partly Cloudy SCT070 11.8 -6.2 28% 76.35 0.0
06 13:35 NW 24 G 39 16.09 Mostly Cloudy BKN070 12.2 -6.4 27% 76.38 0.0
06 13:15 W 28 G 41 16.09 Mostly Cloudy BKN070 12.3 -6.4 27% 76.4 0.0
06 12:55 NW 19 G 37 16.09 Partly Cloudy SCT070 11.6 -6.7 11.8 -1.1 27% 76.43 0.0
06 12:35 NW 17 G 39 16.09 Partly Cloudy SCT070 10.9 -7.2 28% 76.43 0.0
06 12:15 NW 15 G 33 16.09 Partly Cloudy SCT070 11.2 -6.8 28% 76.45 0.0
06 11:55 W 22 G 39 16.09 Partly Cloudy SCT070 10.9 -7.3 27% 76.45 0.0
06 11:35 NW 17 G 35 16.09 Partly Cloudy SCT070 10 -6.7 30% 8 76.45 0.0
06 10:55 NW 24 16.09 Partly Cloudy SCT060 9.9 -5.5 34% 7 76.48 0.0
06 10:35 W 24 G 33 16.09 Fair CLR 9.5 -3.7 40% 7 76.48 0.0
06 10:15 W 17 G 26 16.09 Fair CLR 8.1 -3.5 44% 6 76.5 0.0
06 09:15 W 15 16.09 Fair CLR 4.7 -3.5 56% 2 76.53 0.0
06 08:55 W 20 16.09 Fair CLR 3.4 -3.9 59% -1 76.5 0.0
06 08:35 W 19 16.09 Fair CLR 2.3 -4 63% -2 76.5 0.0
06 08:15 W 17 16.09 Fair CLR 1.2 -4 69% -3 76.5 0.0
06 07:55 W 11 16.09 Fair CLR 0.7 -3.9 72% -2 76.48 0.0
06 07:35 W 9 16.09 Partly Cloudy SCT080 -0.4 -3.8 78% -3 76.48 0.0
06 07:15 W 9 16.09 Mostly Cloudy BKN080 -0.8 -3.8 80% -4 76.45 0.0
06 06:55 W 7 16.09 Overcast OVC080 -1.1 -3.3 1.5 -4.1 85% -3 76.45 0.0
06 06:35 W 11 16.09 Overcast OVC080 -1.2 -3.6 84% -5 76.43 0.0
06 06:15 W 13 16.09 Mostly Cloudy BKN080 -1.6 -4 84% -6 76.43 0.0
06 05:55 W 9 16.09 Mostly Cloudy BKN080 -1.9 -3.7 88% -5 76.4 0.0
06 05:35 W 6 16.09 Mostly Cloudy BKN080 -1.4 -3.2 88% 76.4 0.0
06 05:15 W 9 16.09 Overcast OVC080 -0.8 -2.8 86% -4 76.43 0.0
06 04:55 W 6 16.09 Overcast OVC080 -0.6 -3 84% 76.4 0.0
06 04:35 W 7 16.09 Overcast OVC090 -0.9 -4.4 77% -3 76.4 0.0
06 04:15 NW 7 16.09 Mostly Cloudy BKN090 -2 -4.6 83% -4 76.4 0.0
06 03:55 W 6 16.09 Partly Cloudy SCT090 -2.1 -4.6 83% 76.38 0.0
06 03:35 NW 6 16.09 Overcast OVC090 -1 -4.4 78% 76.38 0.0
06 03:15 Calm 16.09 Mostly Cloudy BKN090 -1.3 -4.7 78% 76.38 0.0
06 02:55 NW 6 16.09 Overcast OVC090 -2.3 -4 88% 76.38 0.0
06 02:35 Calm 16.09 Partly Cloudy SCT090 -2.1 -4.7 83% 76.4 0.0
06 02:15 Calm 16.09 Fair CLR -1.8 -4.9 80% 76.38 0.0
06 01:55 NW 6 16.09 Fair CLR 0.4 -3.8 74% 76.38 0.0
06 01:35 N 7 16.09 Fair CLR 1.5 -3 72% -0 76.35 0.0
06 01:15 N 6 16.09 Fair CLR 0.3 -3.6 75% 76.33 0.0
06 00:55 N 6 16.09 Fair CLR 1.6 -3.6 9.7 1.2 69% 76.33 0.0
06 00:35 N 7 16.09 Fair CLR 1.2 -3.5 71% -1 76.33 0.0
06 00:15 N 7 16.09 Fair CLR 1.8 -3.3 69% -0 76.3 0.0
05 23:35 Calm 16.09 Fair CLR 1.8 -4.6 63% 76.3 0.0
05 23:15 Calm 16.09 Fair CLR 2.7 -4.3 60% 76.3 0.0
05 22:55 Calm 16.09 Fair CLR 4.1 -4.6 54% 76.3 0.0
05 22:35 Calm 16.09 Fair CLR 2.7 -4.9 58% 76.3 0.0
05 22:15 Calm 16.09 Partly Cloudy SCT075 4.1 -5.2 51% 76.3 0.0
05 21:55 Calm 16.09 Partly Cloudy SCT075 4.2 -5 52% 76.28 0.0
05 21:35 NW 7 16.09 Partly Cloudy SCT075 4.9 -5.4 48% 3 76.25 0.0
05 21:15 NW 6 16.09 Overcast OVC075 5.5 -4.4 49% 76.23 0.0
05 20:55 NW 7 16.09 Partly Cloudy SCT075 6.5 -6 41% 5 76.2 0.0
05 20:35 N 11 16.09 Partly Cloudy SCT075 7.6 -6.7 36% 6 76.17 0.0
05 20:15 NW 19 16.09 Partly Cloudy SCT090 8.3 -6.9 34% 6 76.17 0.0
05 19:55 NW 20 16.09 Mostly Cloudy BKN090 8.7 -7.3 32% 6 76.15 0.0
05 19:35 N 22 G 30 16.09 Partly Cloudy SCT090 8.6 -7.6 31% 6 76.12 0.0
05 19:15 NW 20 G 26 16.09 Fair CLR 9.1 -7 32% 6 76.12 0.0
05 18:55 N 20 G 35 16.09 Partly Cloudy SCT075 SCT085 9.7 -7.8 11.1 8.3 29% 7 76.12 0.0
05 18:35 N 20 G 30 16.09 Mostly Cloudy BKN075 9.7 -7.5 29% 7 76.12 0.0
05 18:15 NW 20 G 26 16.09 Mostly Cloudy SCT075 BKN085 9.4 -6.9 31% 7 76.12 0.0
05 17:55 N 22 G 30 16.09 Overcast SCT075 OVC085 9.9 -7.5 29% 7 76.12 0.0
05 17:35 N 24 G 30 16.09 Overcast OVC075 9.6 -7.1 30% 7 76.12 0.0
05 17:15 N 20 G 37 16.09 Mostly Cloudy SCT075 BKN085 10.7 -6.9 29% 76.12 0.0
05 16:55 N 20 G 33 16.09 Mostly Cloudy BKN075 BKN085 9.8 -6.9 30% 7 76.15 0.0
05 16:35 NW 20 G 41 16.09 Overcast OVC075 10.1 -6.6 31% 76.15 0.0
05 16:15 NW 26 G 39 16.09 Overcast BKN065 OVC080 10.8 -6 30% 76.17 0.0
05 15:35 NW 22 G 33 16.09 Overcast SCT065 OVC075 9.9 -6.2 32% 7 76.17 0.0
05 15:15 NW 24 G 41 16.09 Mostly Cloudy SCT065 BKN075 9.3 -6.3 33% 6 76.2 0.0
05 14:55 NW 28 G 44 16.09 Overcast SCT065 OVC075 10 -5.6 33% 7 76.2 0.0
05 14:35 NW 30 G 39 16.09 Overcast SCT065 OVC075 9.8 -6.3 32% 7 76.2 0.0
05 14:15 N 31 G 39 16.09 Overcast SCT065 OVC075 9.9 -5.2 34% 7 76.2 0.0
05 13:55 N 26 G 41 16.09 Overcast OVC075 9.1 -6.1 34% 6 76.2 0.0
05 13:35 N 24 G 35 16.09 Overcast SCT060 OVC070 9.5 -6.3 33% 7 76.2 0.0
05 13:15 NW 26 G 33 16.09 Overcast SCT060 OVC070 9.1 -6 34% 6 76.23 0.0
05 12:55 NW 22 G 35 16.09 Overcast SCT060 OVC070 8.8 -5.7 8.8 0.5 36% 6 76.23 0.0
05 12:35 N 22 G 35 16.09 Overcast OVC070 8.7 -6.7 33% 6 76.23 0.0
05 12:15 N 20 16.09 Overcast OVC070 8.2 -6.4 35% 5 76.23 0.0
05 11:55 NW 33 G 39 16.09 Overcast and Breezy OVC070 8.1 -6.4 35% 4 76.23 0.0
05 11:35 NW 24 G 35 16.09 Overcast OVC065 7.3 -5.5 40% 4 76.23 0.0
05 11:15 N 30 G 39 16.09 Overcast OVC065 7.5 -5.9 38% 4 76.23 0.0
05 10:55 N 31 G 39 16.09 Overcast SCT065 OVC075 8.8 -5.8 35% 5 76.2 0.0
05 10:15 NW 28 G 37 16.09 Mostly Cloudy BKN065 7.4 -4.9 42% 4 76.2 0.0
05 09:55 N 24 16.09 Partly Cloudy SCT065 6.8 -4.1 46% 3 76.2 0.0
05 09:35 N 22 G 30 16.09 Overcast OVC065 6.1 -3.8 49% 3 76.2 0.0
05 09:15 NW 22 16.09 Overcast OVC065 5.8 -3.3 52% 2 76.2 0.0
05 08:55 NW 19 16.09 Mostly Cloudy BKN065 5.2 -2.6 57% 2 76.17 0.0
05 08:35 NW 17 16.09 Fair CLR 4.4 -2.1 63% 1 76.17 0.0
05 08:15 NW 11 16.09 Fair CLR 3.3 -2.3 67% 1 76.17 0.0
05 07:55 NW 11 16.09 Fair CLR 2.5 -2.1 72% -0 76.17 0.0
05 07:35 NW 13 16.09 Fair CLR 2.2 -2.2 73% -1 76.12 0.0
05 07:15 NW 13 16.09 Fair CLR 1.4 -2 78% -2 76.1 0.0
05 06:55 NW 13 16.09 Fair CLR 0.5 -2 5.8 -0.6 84% -3 76.05 0.0
05 06:35 NW 11 16.09 Fair CLR 0.6 -1.6 85% -2 76.02 0.0
05 06:15 NW 13 16.09 Fair CLR 1 -1.1 86% -2 76.02 0.0
05 05:55 NW 13 16.09 Fair CLR 1.2 -1 85% -2 76.02 0.0
05 05:35 NW 17 16.09 Fair CLR 1 -0.3 91% -3 76 0.0
05 05:15 NW 11 16.09 Fair CLR -0.5 -1.9 90% -4 76 0.0
05 04:55 NW 7 16.09 Fair CLR 0 -2 87% -2 76 0.0
Date Time (cdt) Wind (kph) Vis. (km) Weather Sky Cond. Air Dwpt Max. Min. Relative Humidity Wind Chill (°C) Heat Index (°C) altimeter (cm) sea level (mb) 1 hr 3 hr 6 hr
6 hour
Temperature (ºC) Pressure Precipitation (cm)